Ent AFB, Colorado
Current Conditions -  °F | °C
As of 10:54 PM on Thursday 30 Oct 2014 (Local Time) from KCOS Reporting Station
Clear Clear  
Wind Chill: 39°   Ceiling: Unl
Heat Index: 43°   Visibility: 10mi
Dew Point: 24°   Wind: 7mph
Humidity: 47%   Direction: 110°ESE
Pressure: 30.46"   Gusts: NA
Location:  38.8334°N, 104.82°W
Report Text: KCOS 310454Z 11006KT 10SM CLR 06/M04 A3046 RMK AO2 SLP288 T00611044
Loading
Personal Weather Stations






























Interactive Weather Map
Tropical Storm Tracking
New forecast layout! Learn more

10-Day Weather Forecast

Advertisements
Track Severe Weather on mobile